Time;durP1;ratioP1;P1;durP2;ratioP2;P2;SDS_P1;SDS_P2;PMS_P1;PMS_P2;Temp;Humidity;BMP_temperature;BMP_pressure;BME280_temperature;BME280_humidity;BME280_pressure;Samples;Min_cycle;Max_cycle;Signal;HPM_P1;HPM_P2
2022/03/15 00:01:21;;;;;;;;;;;6.80;99.90;;;;;;5039661;28;20296;-92
2022/03/15 00:03:50;;;;;;;;;;;7.60;99.90;;;;;;5031588;28;19929;-92
2022/03/15 00:06:18;;;;;;;;;;;6.70;99.90;;;;;;5035145;28;19929;-90
2022/03/15 00:08:45;;;;;;;;;;;7.50;99.90;;;;;;5043800;28;19929;-89
2022/03/15 00:11:13;;;;;;;;;;;7.40;99.90;;;;;;5029570;28;19933;-90
2022/03/15 00:13:41;;;;;;;;;;;7.40;99.90;;;;;;5041323;28;19925;-91
2022/03/15 00:16:10;;;;;;;;;;;7.80;99.90;;;;;;5050698;28;19921;-90
2022/03/15 00:18:38;;;;;;;;;;;7.20;99.90;;;;;;5020792;28;19931;-89
2022/03/15 00:21:10;;;;;;;;;;;7.20;99.90;;;;;;5041838;28;19944;-90
2022/03/15 00:23:38;;;;;;;;;;;7.10;99.90;;;;;;5036340;28;19924;-90
2022/03/15 00:26:07;;;;;;;;;;;7.10;99.90;;;;;;5017435;28;19935;-92
2022/03/15 00:28:36;;;;;;;;;;;7.00;99.90;;;;;;5024565;28;19925;-90
2022/03/15 00:31:04;;;;;;;;;;;7.00;99.90;;;;;;5040424;28;19929;-91
2022/03/15 00:33:34;;;;;;;;;;;6.90;99.90;;;;;;5040576;28;20730;-90
2022/03/15 00:36:02;;;;;;;;;;;6.90;99.90;;;;;;5031685;28;20321;-90
2022/03/15 00:38:29;;;;;;;;;;;6.90;99.90;;;;;;5035345;28;19929;-88
2022/03/15 00:40:58;;;;;;;;;;;6.80;99.90;;;;;;5031610;28;20441;-91
2022/03/15 00:43:26;;;;;;;;;;;6.80;99.90;;;;;;5031958;28;19929;-90
2022/03/15 00:45:55;;;;;;;;;;;6.80;99.90;;;;;;5040010;28;19925;-91
2022/03/15 00:48:23;;;;;;;;;;;6.80;99.90;;;;;;5038101;28;19933;-91
2022/03/15 00:50:50;;;;;;;;;;;6.70;99.90;;;;;;5047927;28;19925;-91
2022/03/15 00:53:18;;;;;;;;;;;6.70;99.90;;;;;;5055285;28;19924;-91
2022/03/15 00:55:46;;;;;;;;;;;6.70;99.90;;;;;;5023766;28;20403;-90
2022/03/15 00:58:13;;;;;;;;;;;6.70;99.90;;;;;;5040479;28;19926;-90
2022/03/15 01:00:44;;;;;;;;;;;6.60;99.90;;;;;;5030156;28;19925;-89
2022/03/15 01:03:16;;;;;;;;;;;6.60;99.90;;;;;;5057945;28;19935;-90
2022/03/15 01:05:44;;;;;;;;;;;6.60;99.90;;;;;;5040133;28;20247;-90
2022/03/15 01:08:14;;;;;;;;;;;6.60;99.90;;;;;;5022958;28;19932;-91
2022/03/15 01:10:41;;;;;;;;;;;6.60;99.90;;;;;;5022189;28;20372;-90
2022/03/15 01:13:09;;;;;;;;;;;6.60;99.90;;;;;;5052927;28;19932;-89
2022/03/15 01:15:44;;;;;;;;;;;6.40;99.90;;;;;;5026881;28;19944;-90
2022/03/15 01:18:12;;;;;;;;;;;6.50;99.90;;;;;;5012674;28;19925;-90
2022/03/15 01:20:43;;;;;;;;;;;6.50;99.90;;;;;;5050553;28;20280;-90
2022/03/15 01:23:12;;;;;;;;;;;6.40;99.90;;;;;;5012490;28;19940;-89
2022/03/15 01:25:44;;;;;;;;;;;6.40;99.90;;;;;;5028771;28;19931;-90
2022/03/15 01:28:13;;;;;;;;;;;6.30;99.90;;;;;;5030064;28;19925;-90
2022/03/15 01:30:41;;;;;;;;;;;6.30;99.90;;;;;;5045385;28;19925;-89
2022/03/15 01:33:11;;;;;;;;;;;6.20;99.90;;;;;;5064222;28;20564;-90
2022/03/15 01:35:43;;;;;;;;;;;6.10;99.90;;;;;;5061612;28;19951;-90
2022/03/15 01:38:13;;;;;;;;;;;6.10;99.90;;;;;;5036091;28;19931;-90
2022/03/15 01:40:43;;;;;;;;;;;4.40;99.90;;;;;;5044476;28;19928;-90
2022/03/15 01:43:12;;;;;;;;;;;6.10;99.90;;;;;;5051689;28;19925;-89
2022/03/15 01:45:40;;;;;;;;;;;6.10;99.90;;;;;;5058468;28;19931;-90
2022/03/15 01:48:09;;;;;;;;;;;6.10;99.90;;;;;;5044125;28;19928;-90
2022/03/15 01:50:37;;;;;;;;;;;6.10;99.90;;;;;;5033071;28;20504;-89
2022/03/15 01:53:06;;;;;;;;;;;6.10;99.90;;;;;;5033886;28;19932;-90
2022/03/15 01:55:40;;;;;;;;;;;6.20;99.90;;;;;;5043622;28;19935;-90
2022/03/15 01:58:08;;;;;;;;;;;6.10;99.90;;;;;;5043026;28;19925;-90
2022/03/15 02:00:39;;;;;;;;;;;6.20;99.90;;;;;;5039433;28;19925;-90
2022/03/15 02:03:15;;;;;;;;;;;6.10;99.90;;;;;;5049024;28;20307;-90
2022/03/15 02:05:44;;;;;;;;;;;6.10;99.90;;;;;;5056522;28;20129;-91
2022/03/15 02:08:20;;;;;;;;;;;6.10;99.90;;;;;;5033425;28;19932;-89
2022/03/15 02:10:47;;;;;;;;;;;5.70;99.90;;;;;;5054286;28;19933;-91
2022/03/15 02:13:20;;;;;;;;;;;6.20;99.90;;;;;;5063277;28;20384;-90
2022/03/15 02:15:50;;;;;;;;;;;6.10;99.90;;;;;;5046124;28;19928;-90
2022/03/15 02:18:19;;;;;;;;;;;6.20;99.90;;;;;;5037915;28;20299;-89
2022/03/15 02:20:47;;;;;;;;;;;5.30;99.90;;;;;;5072349;28;19940;-90
2022/03/15 02:23:16;;;;;;;;;;;6.20;99.90;;;;;;5048530;28;19929;-90
2022/03/15 02:25:44;;;;;;;;;;;6.20;99.90;;;;;;5039295;28;19931;-91
2022/03/15 02:28:13;;;;;;;;;;;6.50;99.90;;;;;;5021301;28;19931;-90
2022/03/15 02:30:40;;;;;;;;;;;6.30;99.90;;;;;;5027389;28;19925;-89
2022/03/15 02:33:08;;;;;;;;;;;6.30;99.90;;;;;;5079067;28;20000;-90
2022/03/15 02:35:36;;;;;;;;;;;6.30;99.90;;;;;;5021627;28;20387;-90
2022/03/15 02:38:04;;;;;;;;;;;6.30;99.90;;;;;;5075892;28;19931;-90
2022/03/15 02:40:36;;;;;;;;;;;6.40;99.90;;;;;;5057017;28;19931;-90
2022/03/15 02:43:04;;;;;;;;;;;6.40;99.90;;;;;;5053519;28;19935;-90
2022/03/15 02:45:32;;;;;;;;;;;6.40;99.90;;;;;;5061115;28;20285;-90
2022/03/15 02:48:00;;;;;;;;;;;6.40;99.90;;;;;;5047757;28;20287;-91
2022/03/15 02:50:27;;;;;;;;;;;6.50;99.90;;;;;;5050674;28;19932;-90
2022/03/15 02:52:55;;;;;;;;;;;6.50;99.90;;;;;;5074549;28;19925;-92
2022/03/15 02:55:25;;;;;;;;;;;6.50;99.90;;;;;;5049636;28;19924;-89
2022/03/15 02:57:53;;;;;;;;;;;6.50;99.90;;;;;;5077276;28;19922;-90
2022/03/15 03:00:21;;;;;;;;;;;6.60;99.90;;;;;;5077809;28;19935;-89
2022/03/15 03:02:49;;;;;;;;;;;6.60;99.90;;;;;;5069678;28;19931;-90
2022/03/15 03:05:20;;;;;;;;;;;6.70;99.90;;;;;;5060571;28;19921;-89
2022/03/15 03:07:48;;;;;;;;;;;6.80;99.90;;;;;;5076477;28;19935;-90
2022/03/15 03:10:16;;;;;;;;;;;7.20;99.90;;;;;;5077378;28;19979;-90
2022/03/15 03:12:47;;;;;;;;;;;6.70;99.90;;;;;;5057785;28;19938;-91
2022/03/15 03:15:19;;;;;;;;;;;6.80;99.90;;;;;;5050522;28;19932;-90
2022/03/15 03:17:49;;;;;;;;;;;6.80;99.90;;;;;;5029102;28;19929;-91
2022/03/15 03:20:19;;;;;;;;;;;6.80;99.90;;;;;;5032744;28;19929;-89
2022/03/15 03:22:49;;;;;;;;;;;6.60;99.90;;;;;;5048674;28;19937;-90
2022/03/15 03:25:17;;;;;;;;;;;6.80;99.90;;;;;;5033249;28;19942;-91
2022/03/15 03:27:46;;;;;;;;;;;6.80;99.90;;;;;;5056141;28;19933;-90
2022/03/15 03:30:15;;;;;;;;;;;6.80;99.90;;;;;;5063577;28;19939;-90
2022/03/15 03:32:43;;;;;;;;;;;6.80;99.90;;;;;;5046049;28;19933;-90
2022/03/15 03:35:12;;;;;;;;;;;6.80;99.90;;;;;;5029868;28;19936;-91
2022/03/15 03:37:40;;;;;;;;;;;6.80;99.90;;;;;;5062372;28;19936;-90
2022/03/15 03:40:08;;;;;;;;;;;6.70;99.90;;;;;;5046662;28;19933;-90
2022/03/15 03:42:36;;;;;;;;;;;6.80;99.90;;;;;;5079406;28;19925;-90
2022/03/15 03:45:04;;;;;;;;;;;6.70;99.90;;;;;;5038176;28;19931;-89
2022/03/15 03:47:32;;;;;;;;;;;6.70;99.90;;;;;;5054898;28;19925;-90
2022/03/15 03:50:01;;;;;;;;;;;6.70;99.90;;;;;;5061919;28;19925;-91
2022/03/15 03:52:28;;;;;;;;;;;6.70;99.90;;;;;;5053341;28;19935;-91
2022/03/15 03:54:56;;;;;;;;;;;6.40;99.90;;;;;;5052044;28;19932;-90
2022/03/15 03:57:23;;;;;;;;;;;6.70;99.90;;;;;;5057033;28;19924;-90
2022/03/15 03:59:51;;;;;;;;;;;6.60;99.90;;;;;;5048204;28;19931;-91
2022/03/15 04:02:19;;;;;;;;;;;6.60;99.90;;;;;;5040121;28;19931;-90
2022/03/15 04:04:47;;;;;;;;;;;6.60;99.90;;;;;;5065774;28;19924;-91
2022/03/15 04:07:15;;;;;;;;;;;6.60;99.90;;;;;;5031414;28;20403;-89
2022/03/15 04:09:42;;;;;;;;;;;6.60;99.90;;;;;;5045808;28;19948;-91
2022/03/15 04:12:10;;;;;;;;;;;6.60;99.90;;;;;;5061485;28;19932;-90
2022/03/15 04:14:38;;;;;;;;;;;6.50;99.90;;;;;;5078246;28;19928;-90
2022/03/15 04:17:10;;;;;;;;;;;6.60;99.90;;;;;;5060559;28;19944;-90
2022/03/15 04:19:38;;;;;;;;;;;6.30;99.90;;;;;;5045658;28;19939;-90
2022/03/15 04:22:06;;;;;;;;;;;6.50;99.90;;;;;;5044473;28;19925;-92
2022/03/15 04:24:34;;;;;;;;;;;6.40;99.90;;;;;;5078158;28;19924;-90
2022/03/15 04:27:04;;;;;;;;;;;6.40;99.90;;;;;;5040657;28;19939;-90
2022/03/15 04:29:32;;;;;;;;;;;6.40;99.90;;;;;;5041869;28;19924;-90
2022/03/15 04:31:59;;;;;;;;;;;6.50;99.90;;;;;;5046322;28;19924;-91
2022/03/15 04:34:30;;;;;;;;;;;6.40;99.90;;;;;;5041346;28;19926;-91
2022/03/15 04:36:59;;;;;;;;;;;6.40;99.90;;;;;;5056892;28;19931;-90
2022/03/15 04:39:27;;;;;;;;;;;6.30;99.90;;;;;;5040283;28;19935;-90
2022/03/15 04:41:56;;;;;;;;;;;6.30;99.90;;;;;;5015767;28;19936;-90
2022/03/15 04:44:24;;;;;;;;;;;6.30;99.90;;;;;;5060605;28;19925;-90
2022/03/15 04:46:51;;;;;;;;;;;6.20;99.90;;;;;;5055504;28;20232;-90
2022/03/15 04:49:21;;;;;;;;;;;6.30;99.90;;;;;;5051603;28;19939;-91
2022/03/15 04:51:49;;;;;;;;;;;6.30;99.90;;;;;;5051606;28;20197;-88
2022/03/15 04:54:17;;;;;;;;;;;6.30;99.90;;;;;;5069836;28;19928;-90
2022/03/15 04:56:45;;;;;;;;;;;6.20;99.90;;;;;;5062331;28;19928;-90
2022/03/15 04:59:13;;;;;;;;;;;6.20;99.90;;;;;;5070630;28;19939;-90
2022/03/15 05:01:41;;;;;;;;;;;6.10;99.90;;;;;;5049520;28;19932;-91
2022/03/15 05:04:09;;;;;;;;;;;6.20;99.90;;;;;;5029862;28;19929;-90
2022/03/15 05:06:38;;;;;;;;;;;6.20;99.90;;;;;;5046603;28;19925;-91
2022/03/15 05:09:09;;;;;;;;;;;6.10;99.90;;;;;;5059979;28;19932;-90
2022/03/15 05:11:37;;;;;;;;;;;6.10;99.90;;;;;;5045536;28;19924;-89
2022/03/15 05:14:07;;;;;;;;;;;6.20;99.90;;;;;;5043807;28;19948;-90
2022/03/15 05:16:35;;;;;;;;;;;5.30;99.90;;;;;;5045115;28;19931;-89
2022/03/15 05:19:03;;;;;;;;;;;6.00;99.90;;;;;;5030351;28;19928;-90
2022/03/15 05:21:31;;;;;;;;;;;6.00;99.90;;;;;;5060803;28;19932;-89
2022/03/15 05:24:00;;;;;;;;;;;6.00;99.90;;;;;;5030647;28;19948;-90
2022/03/15 05:26:28;;;;;;;;;;;5.90;99.90;;;;;;5048384;28;19928;-89
2022/03/15 05:28:56;;;;;;;;;;;5.90;99.90;;;;;;5050883;28;19933;-89
2022/03/15 05:31:26;;;;;;;;;;;5.90;99.90;;;;;;5028099;28;19924;-89
2022/03/15 05:33:57;;;;;;;;;;;5.90;99.90;;;;;;5043949;28;19932;-89
2022/03/15 05:36:27;;;;;;;;;;;5.80;99.90;;;;;;5050992;28;19924;-89
2022/03/15 05:38:55;;;;;;;;;;;5.80;99.90;;;;;;5029608;28;19931;-90
2022/03/15 05:41:23;;;;;;;;;;;5.80;99.90;;;;;;5048538;28;19925;-89
2022/03/15 05:43:55;;;;;;;;;;;5.70;99.90;;;;;;5054312;28;19924;-90
2022/03/15 05:46:23;;;;;;;;;;;4.50;99.90;;;;;;5031933;28;19956;-89
2022/03/15 05:48:52;;;;;;;;;;;5.60;99.90;;;;;;5049723;28;20375;-89
2022/03/15 05:51:19;;;;;;;;;;;4.50;99.90;;;;;;5039391;28;19935;-89
2022/03/15 05:53:48;;;;;;;;;;;5.70;99.90;;;;;;5031094;28;19929;-90
2022/03/15 05:56:15;;;;;;;;;;;5.60;99.90;;;;;;5031254;28;19932;-89
2022/03/15 05:58:46;;;;;;;;;;;5.60;99.90;;;;;;5056497;28;20003;-90
2022/03/15 06:01:16;;;;;;;;;;;5.60;99.90;;;;;;5051472;28;19929;-89
2022/03/15 06:03:44;;;;;;;;;;;5.60;99.90;;;;;;5048478;28;19935;-89
2022/03/15 06:06:13;;;;;;;;;;;5.60;99.90;;;;;;5071698;28;19927;-89
2022/03/15 06:08:41;;;;;;;;;;;5.50;99.90;;;;;;5055577;28;19931;-89
2022/03/15 06:11:11;;;;;;;;;;;5.50;99.90;;;;;;5048149;28;20439;-90
2022/03/15 06:13:42;;;;;;;;;;;6.30;99.90;;;;;;5057237;28;19940;-90
2022/03/15 06:16:11;;;;;;;;;;;5.30;99.90;;;;;;5058792;28;20280;-90
2022/03/15 06:18:39;;;;;;;;;;;5.50;99.90;;;;;;5082983;28;19974;-88
2022/03/15 06:21:09;;;;;;;;;;;5.50;99.90;;;;;;5057183;28;19957;-89
2022/03/15 06:23:40;;;;;;;;;;;5.40;99.90;;;;;;5050234;28;19931;-90
2022/03/15 06:26:28;;;;;;;;;;;5.40;99.90;;;;;;5028490;28;20000;-90
2022/03/15 06:28:57;;;;;;;;;;;5.40;99.90;;;;;;5047575;28;19925;-89
2022/03/15 06:31:27;;;;;;;;;;;5.40;99.90;;;;;;5038973;28;19939;-90
2022/03/15 06:33:55;;;;;;;;;;;5.40;99.90;;;;;;5044946;28;19929;-90
2022/03/15 06:36:23;;;;;;;;;;;5.40;99.90;;;;;;5029220;28;19935;-91
2022/03/15 06:38:53;;;;;;;;;;;5.40;99.90;;;;;;5037074;28;19932;-89
2022/03/15 06:41:21;;;;;;;;;;;5.50;99.90;;;;;;5030143;28;19929;-90
2022/03/15 06:43:49;;;;;;;;;;;5.50;99.90;;;;;;5031071;28;19925;-90
2022/03/15 06:46:19;;;;;;;;;;;5.60;99.90;;;;;;5035831;28;19929;-89
2022/03/15 06:48:49;;;;;;;;;;;5.50;99.90;;;;;;5065881;28;19931;-92
2022/03/15 06:51:17;;;;;;;;;;;5.40;99.90;;;;;;5041236;28;19925;-90
2022/03/15 06:53:50;;;;;;;;;;;5.30;99.90;;;;;;5056416;28;19925;-89
2022/03/15 06:56:22;;;;;;;;;;;5.60;99.90;;;;;;5045781;28;19935;-89
2022/03/15 06:58:51;;;;;;;;;;;6.20;99.90;;;;;;5037514;28;19931;-89
2022/03/15 07:01:18;;;;;;;;;;;6.20;99.90;;;;;;5031923;28;19931;-90
2022/03/15 07:03:46;;;;;;;;;;;4.90;99.90;;;;;;5048569;28;19928;-91
2022/03/15 07:06:15;;;;;;;;;;;5.80;99.90;;;;;;5065201;28;19931;-91
2022/03/15 07:09:09;;;;;;;;;;;5.90;99.90;;;;;;5050281;28;19933;-91
2022/03/15 07:11:38;;;;;;;;;;;4.50;99.90;;;;;;5050482;28;19928;-89
2022/03/15 07:14:07;;;;;;;;;;;5.90;99.90;;;;;;5037164;28;19924;-90
2022/03/15 07:16:39;;;;;;;;;;;6.00;99.90;;;;;;5034359;28;19941;-88
2022/03/15 07:19:09;;;;;;;;;;;6.00;99.90;;;;;;5051604;28;20445;-91
2022/03/15 07:21:40;;;;;;;;;;;6.00;99.90;;;;;;5020552;28;19935;-91
2022/03/15 07:24:11;;;;;;;;;;;6.00;99.90;;;;;;5042896;28;19939;-89
2022/03/15 07:26:40;;;;;;;;;;;6.10;99.90;;;;;;5039457;28;19929;-91
2022/03/15 07:29:09;;;;;;;;;;;6.10;99.90;;;;;;5041073;28;21092;-91
2022/03/15 07:31:37;;;;;;;;;;;6.20;99.90;;;;;;5056819;28;19932;-91
2022/03/15 07:34:07;;;;;;;;;;;6.20;99.90;;;;;;5060288;28;20322;-93
2022/03/15 07:36:38;;;;;;;;;;;6.20;99.90;;;;;;5026691;28;19932;-90
2022/03/15 07:39:06;;;;;;;;;;;6.20;99.90;;;;;;5058402;28;19929;-90
2022/03/15 07:41:38;;;;;;;;;;;6.30;99.90;;;;;;5023516;28;19933;-88
2022/03/15 07:44:10;;;;;;;;;;;6.30;99.90;;;;;;5024711;28;19932;-89
2022/03/15 07:46:38;;;;;;;;;;;6.40;99.90;;;;;;5077612;28;19935;-88
2022/03/15 07:49:06;;;;;;;;;;;6.40;99.90;;;;;;5028651;28;19925;-90
2022/03/15 07:51:34;;;;;;;;;;;6.50;99.90;;;;;;5057342;28;20300;-89
2022/03/15 07:54:02;;;;;;;;;;;6.60;99.90;;;;;;5014058;28;19925;-91
2022/03/15 07:56:32;;;;;;;;;;;6.60;99.90;;;;;;5044669;28;20437;-90
2022/03/15 07:58:59;;;;;;;;;;;6.70;99.90;;;;;;5041813;28;19947;-91
2022/03/15 08:01:29;;;;;;;;;;;7.10;99.90;;;;;;5008424;28;19933;-90
2022/03/15 08:03:58;;;;;;;;;;;6.10;99.90;;;;;;5040186;28;20011;-90
2022/03/15 08:06:29;;;;;;;;;;;7.00;99.90;;;;;;5024475;28;19951;-91
2022/03/15 08:08:58;;;;;;;;;;;7.10;99.90;;;;;;5035936;28;19935;-90
2022/03/15 08:11:26;;;;;;;;;;;7.20;99.90;;;;;;5023332;28;19925;-91
2022/03/15 08:13:56;;;;;;;;;;;7.30;99.90;;;;;;5053676;28;20386;-91
2022/03/15 08:16:24;;;;;;;;;;;7.30;99.90;;;;;;5025941;28;19928;-90
2022/03/15 08:18:55;;;;;;;;;;;7.40;99.90;;;;;;5040884;28;19925;-91
2022/03/15 08:21:27;;;;;;;;;;;7.50;99.90;;;;;;5040810;28;19925;-91
2022/03/15 08:23:54;;;;;;;;;;;7.60;99.90;;;;;;5054142;28;19925;-88
2022/03/15 08:26:22;;;;;;;;;;;7.70;99.90;;;;;;5059602;28;19932;-89
2022/03/15 08:28:50;;;;;;;;;;;7.80;99.90;;;;;;5042745;28;19932;-90
2022/03/15 08:31:17;;;;;;;;;;;7.90;99.90;;;;;;5049524;28;19932;-89
2022/03/15 08:33:49;;;;;;;;;;;8.00;99.90;;;;;;5065888;28;19936;-89
2022/03/15 08:36:18;;;;;;;;;;;8.00;99.90;;;;;;5041478;28;19928;-92
2022/03/15 08:38:45;;;;;;;;;;;7.20;99.90;;;;;;5059134;28;19945;-91
2022/03/15 08:41:14;;;;;;;;;;;8.20;99.90;;;;;;5050150;28;19924;-91
2022/03/15 08:43:43;;;;;;;;;;;8.30;99.90;;;;;;5030875;28;19929;-91
2022/03/15 08:46:11;;;;;;;;;;;8.40;99.90;;;;;;5046971;28;19935;-91
2022/03/15 08:48:38;;;;;;;;;;;8.40;99.90;;;;;;5048733;28;19935;-90
2022/03/15 08:51:07;;;;;;;;;;;8.50;99.90;;;;;;5041710;28;19929;-90
2022/03/15 08:53:37;;;;;;;;;;;8.60;99.90;;;;;;5037926;28;20376;-90
2022/03/15 08:56:05;;;;;;;;;;;8.70;99.90;;;;;;5069666;28;19925;-91
2022/03/15 08:58:34;;;;;;;;;;;8.80;99.90;;;;;;5037635;28;20391;-91
2022/03/15 09:01:02;;;;;;;;;;;8.90;99.90;;;;;;5041329;28;19936;-93
2022/03/15 09:03:53;;;;;;;;;;;9.00;99.90;;;;;;5053333;28;19929;-90
2022/03/15 09:06:21;;;;;;;;;;;9.10;99.90;;;;;;5053441;28;19929;-90
2022/03/15 09:08:50;;;;;;;;;;;9.30;99.90;;;;;;5039726;28;19929;-91
2022/03/15 09:11:18;;;;;;;;;;;9.30;99.90;;;;;;5039811;28;19929;-91
2022/03/15 09:13:45;;;;;;;;;;;9.40;99.90;;;;;;5024975;28;19932;-89
2022/03/15 09:16:13;;;;;;;;;;;9.40;99.90;;;;;;5043479;28;19932;-90
2022/03/15 09:18:43;;;;;;;;;;;9.60;99.90;;;;;;5024529;28;19932;-90
2022/03/15 09:21:12;;;;;;;;;;;9.80;99.90;;;;;;5038909;28;19932;-89
2022/03/15 09:23:42;;;;;;;;;;;9.90;99.90;;;;;;5037622;28;19935;-89
2022/03/15 09:26:14;;;;;;;;;;;10.00;99.90;;;;;;5024612;28;20189;-90
2022/03/15 09:28:44;;;;;;;;;;;10.10;99.90;;;;;;5050234;28;20419;-90
2022/03/15 09:31:14;;;;;;;;;;;10.20;99.90;;;;;;5041259;28;19921;-92
2022/03/15 09:33:43;;;;;;;;;;;10.30;99.90;;;;;;5051386;28;19928;-88
2022/03/15 09:36:11;;;;;;;;;;;10.40;99.90;;;;;;5048805;28;19943;-91
2022/03/15 09:38:43;;;;;;;;;;;10.50;99.90;;;;;;5032241;28;19925;-92
2022/03/15 09:41:13;;;;;;;;;;;10.60;99.90;;;;;;5017102;28;19932;-89
2022/03/15 09:43:45;;;;;;;;;;;10.80;99.90;;;;;;5041642;28;19939;-90
2022/03/15 09:46:13;;;;;;;;;;;10.90;99.90;;;;;;5034467;28;20713;-89
2022/03/15 09:49:02;;;;;;;;;;;11.00;99.90;;;;;;5034980;28;19925;-90
2022/03/15 09:51:32;;;;;;;;;;;11.20;99.90;;;;;;5053922;28;19936;-91
2022/03/15 09:54:01;;;;;;;;;;;11.40;99.90;;;;;;5039256;28;19935;-89
2022/03/15 09:56:29;;;;;;;;;;;11.50;99.90;;;;;;5051211;28;19929;-89
2022/03/15 10:01:59;;;;;;;;;;;11.80;99.90;;;;;;4890060;29;19936;-90
2022/03/15 10:04:29;;;;;;;;;;;11.90;99.90;;;;;;4877624;29;20101;-90
2022/03/15 10:06:59;;;;;;;;;;;13.00;99.90;;;;;;4864639;29;19927;-90
2022/03/15 10:09:30;;;;;;;;;;;12.20;99.90;;;;;;4861854;29;19938;-89
2022/03/15 10:12:02;;;;;;;;;;;12.30;99.90;;;;;;4867577;29;19928;-89
2022/03/15 10:15:03;;;;;;;;;;;12.40;99.90;;;;;;4883813;29;19934;-91
2022/03/15 10:17:40;;;;;;;;;;;12.50;99.90;;;;;;4861835;29;19934;-90
2022/03/15 10:20:08;;;;;;;;;;;12.50;99.90;;;;;;4869223;29;19927;-90
2022/03/15 10:22:38;;;;;;;;;;;12.60;99.90;;;;;;4869603;29;19934;-91
2022/03/15 10:25:08;;;;;;;;;;;12.60;99.90;;;;;;4886733;29;19928;-90
2022/03/15 10:27:36;;;;;;;;;;;12.70;99.90;;;;;;4905714;29;19927;-90
2022/03/15 10:30:04;;;;;;;;;;;12.70;99.90;;;;;;4870259;29;19931;-90
2022/03/15 10:32:33;;;;;;;;;;;12.70;99.90;;;;;;4899933;29;19935;-88
2022/03/15 10:35:08;;;;;;;;;;;12.80;99.90;;;;;;4883196;29;20283;-89
2022/03/15 10:37:39;;;;;;;;;;;12.80;99.90;;;;;;4885378;29;19931;-91
2022/03/15 10:40:09;;;;;;;;;;;12.90;99.90;;;;;;4882243;29;19931;-90
2022/03/15 10:42:41;;;;;;;;;;;12.90;99.90;;;;;;4853395;29;19938;-90
2022/03/15 10:45:18;;;;;;;;;;;13.00;99.90;;;;;;4872089;29;19935;-91
2022/03/15 10:47:52;;;;;;;;;;;13.00;99.90;;;;;;4901826;29;19928;-90
2022/03/15 10:50:21;;;;;;;;;;;13.20;99.90;;;;;;4874123;29;19935;-90
2022/03/15 10:52:53;;;;;;;;;;;13.10;99.90;;;;;;4872479;29;19933;-91
2022/03/15 10:55:23;;;;;;;;;;;13.30;99.90;;;;;;4905226;29;19931;-89
2022/03/15 10:57:52;;;;;;;;;;;13.40;99.90;;;;;;4906243;29;19927;-91
2022/03/15 11:00:22;;;;;;;;;;;13.50;99.90;;;;;;4867007;29;19933;-92
2022/03/15 11:02:54;;;;;;;;;;;13.60;99.90;;;;;;4884482;29;19939;-90
2022/03/15 11:05:27;;;;;;;;;;;13.80;99.90;;;;;;4866420;29;19940;-90
2022/03/15 11:07:56;;;;;;;;;;;14.00;99.90;;;;;;4839322;29;20319;-93
2022/03/15 11:10:26;;;;;;;;;;;14.10;99.90;;;;;;4868643;29;20454;-88
2022/03/15 11:12:58;;;;;;;;;;;14.30;99.90;;;;;;4870382;29;20295;-92
2022/03/15 11:15:30;;;;;;;;;;;14.40;99.90;;;;;;4862213;29;19916;-92
2022/03/15 11:18:02;;;;;;;;;;;13.40;99.90;;;;;;4883151;29;19935;-92
2022/03/15 11:20:35;;;;;;;;;;;14.50;99.90;;;;;;4882837;29;19927;-93
2022/03/15 11:23:28;;;;;;;;;;;14.70;99.90;;;;;;4885033;29;19924;-93
2022/03/15 11:26:21;;;;;;;;;;;14.70;99.90;;;;;;4847065;29;19912;-92
2022/03/15 11:28:52;;;;;;;;;;;14.70;99.90;;;;;;4875363;29;19942;-92
2022/03/15 11:31:20;;;;;;;;;;;14.70;99.90;;;;;;4845535;29;19928;-92
2022/03/15 11:33:54;;;;;;;;;;;14.60;99.90;;;;;;4873044;29;19928;-93
2022/03/15 11:36:25;;;;;;;;;;;14.50;99.90;;;;;;4895871;29;19924;-92
2022/03/15 11:39:24;;;;;;;;;;;14.50;99.90;;;;;;4885492;29;19917;-90
2022/03/15 11:41:52;;;;;;;;;;;14.50;99.90;;;;;;4884052;29;19912;-91
2022/03/15 11:44:29;;;;;;;;;;;14.50;99.90;;;;;;4877487;29;19928;-91
2022/03/15 11:47:11;;;;;;;;;;;14.60;99.90;;;;;;4868960;29;19935;-90
2022/03/15 11:49:43;;;;;;;;;;;14.70;99.90;;;;;;4854076;29;19933;-91
2022/03/15 11:52:17;;;;;;;;;;;14.90;99.90;;;;;;4880451;29;19925;-90
2022/03/15 11:55:11;;;;;;;;;;;15.00;99.90;;;;;;4860441;29;19938;-88
2022/03/15 11:57:49;;;;;;;;;;;15.30;99.90;;;;;;4854841;29;19928;-91
2022/03/15 12:00:31;;;;;;;;;;;15.60;99.90;;;;;;4873095;29;19935;-91
2022/03/15 12:03:02;;;;;;;;;;;15.80;99.90;;;;;;4869748;29;20366;-90
2022/03/15 12:05:41;;;;;;;;;;;15.90;99.90;;;;;;4869747;29;19932;-90
2022/03/15 12:08:15;;;;;;;;;;;16.00;99.90;;;;;;4852770;29;20314;-90
2022/03/15 12:10:56;;;;;;;;;;;16.10;99.90;;;;;;4857431;29;20279;-89
2022/03/15 12:13:47;;;;;;;;;;;16.20;99.90;;;;;;4862393;29;19935;-89
2022/03/15 12:16:25;;;;;;;;;;;16.30;99.50;;;;;;4881649;29;19939;-89
2022/03/15 12:19:10;;;;;;;;;;;16.30;99.50;;;;;;4884382;29;20714;-91
2022/03/15 12:21:52;;;;;;;;;;;16.30;99.60;;;;;;4876875;29;20157;-91
2022/03/15 12:24:28;;;;;;;;;;;16.30;98.70;;;;;;4885508;29;19939;-90
2022/03/15 12:26:59;;;;;;;;;;;16.20;99.10;;;;;;4882464;29;19932;-91
2022/03/15 12:29:27;;;;;;;;;;;16.30;99.30;;;;;;4880593;29;19947;-87
2022/03/15 12:32:11;;;;;;;;;;;16.40;98.80;;;;;;4885608;29;19932;-91
2022/03/15 12:34:43;;;;;;;;;;;16.50;98.40;;;;;;4883900;29;19932;-89
2022/03/15 12:37:12;;;;;;;;;;;16.60;97.90;;;;;;4886044;29;19935;-93
2022/03/15 12:39:41;;;;;;;;;;;16.70;98.80;;;;;;4884709;29;19927;-92
2022/03/15 12:42:14;;;;;;;;;;;16.80;98.90;;;;;;4869914;29;19943;-91
2022/03/15 12:44:49;;;;;;;;;;;16.80;97.90;;;;;;4868193;29;19927;-92
2022/03/15 12:47:25;;;;;;;;;;;16.80;98.90;;;;;;4867970;29;19935;-91
2022/03/15 12:50:12;;;;;;;;;;;16.80;98.90;;;;;;4874580;29;19935;-91
2022/03/15 12:52:56;;;;;;;;;;;16.80;99.00;;;;;;4866457;29;19928;-91
2022/03/15 12:55:30;;;;;;;;;;;16.80;98.70;;;;;;4869837;29;19942;-89
2022/03/15 12:58:02;;;;;;;;;;;16.80;98.60;;;;;;4867775;29;19932;-89
2022/03/15 13:00:36;;;;;;;;;;;16.90;98.60;;;;;;4848667;29;19932;-91
2022/03/15 13:03:06;;;;;;;;;;;16.90;98.90;;;;;;4854737;29;19932;-91
2022/03/15 13:05:38;;;;;;;;;;;16.90;98.80;;;;;;4855224;29;19947;-90
2022/03/15 13:08:07;;;;;;;;;;;17.00;98.50;;;;;;4879355;29;19939;-90
2022/03/15 13:10:39;;;;;;;;;;;17.00;98.30;;;;;;4845811;29;19931;-92
2022/03/15 13:13:08;;;;;;;;;;;17.00;98.90;;;;;;4886250;29;19934;-91
2022/03/15 13:15:39;;;;;;;;;;;17.00;97.70;;;;;;4869143;29;19939;-93
2022/03/15 13:18:09;;;;;;;;;;;17.00;97.90;;;;;;4846037;29;19928;-92
2022/03/15 13:20:38;;;;;;;;;;;17.10;97.90;;;;;;4877280;29;19936;-93
2022/03/15 13:23:09;;;;;;;;;;;17.20;98.10;;;;;;4867817;29;19939;-89
2022/03/15 13:25:49;;;;;;;;;;;17.20;98.10;;;;;;4887185;29;19931;-92
2022/03/15 13:28:27;;;;;;;;;;;17.30;97.80;;;;;;4875328;29;19940;-92
2022/03/15 13:30:57;;;;;;;;;;;17.30;98.30;;;;;;4861346;29;20224;-92
2022/03/15 13:33:26;;;;;;;;;;;17.50;97.20;;;;;;4884382;29;20390;-92
2022/03/15 13:36:14;;;;;;;;;;;17.40;95.30;;;;;;4851636;29;19959;-93
2022/03/15 13:38:45;;;;;;;;;;;16.00;94.20;;;;;;4867736;29;19928;-92
2022/03/15 13:41:15;;;;;;;;;;;17.50;94.70;;;;;;4883880;29;19932;-92
2022/03/15 13:43:46;;;;;;;;;;;17.50;93.40;;;;;;4882757;29;19935;-92
2022/03/15 13:46:15;;;;;;;;;;;17.50;93.80;;;;;;4881764;29;19932;-93
2022/03/15 13:48:43;;;;;;;;;;;17.60;94.80;;;;;;4877494;29;19939;-92
2022/03/15 13:51:16;;;;;;;;;;;17.70;94.40;;;;;;4871931;29;19927;-93
2022/03/15 13:53:46;;;;;;;;;;;17.80;94.30;;;;;;4884265;29;19932;-92
2022/03/15 13:56:21;;;;;;;;;;;17.80;94.10;;;;;;4854409;29;20469;-91
2022/03/15 13:59:00;;;;;;;;;;;17.80;94.10;;;;;;4836823;29;19928;-91
2022/03/15 14:01:36;;;;;;;;;;;17.80;94.30;;;;;;4869322;29;19950;-92
2022/03/15 14:04:10;;;;;;;;;;;17.90;95.50;;;;;;4886166;29;19934;-90
2022/03/15 14:06:43;;;;;;;;;;;18.00;94.00;;;;;;4871552;29;19935;-90
2022/03/15 14:09:23;;;;;;;;;;;18.00;94.70;;;;;;4873389;29;19947;-90
2022/03/15 14:12:14;;;;;;;;;;;17.90;95.30;;;;;;4872217;29;19932;-91
2022/03/15 14:14:53;;;;;;;;;;;17.90;96.40;;;;;;4873168;29;20001;-92
2022/03/15 14:17:24;;;;;;;;;;;17.80;94.40;;;;;;4887715;29;19931;-91
2022/03/15 14:19:56;;;;;;;;;;;17.70;93.80;;;;;;4872683;29;19927;-91
2022/03/15 14:22:29;;;;;;;;;;;17.60;92.80;;;;;;4873808;29;19927;-92
2022/03/15 14:25:02;;;;;;;;;;;17.60;92.40;;;;;;4855406;29;19939;-91
2022/03/15 14:27:31;;;;;;;;;;;17.60;92.70;;;;;;4872343;29;19932;-89
2022/03/15 14:30:01;;;;;;;;;;;17.60;93.60;;;;;;4886147;29;19932;-90
2022/03/15 14:32:32;;;;;;;;;;;17.60;92.80;;;;;;4885578;29;19928;-92
2022/03/15 14:35:07;;;;;;;;;;;17.60;92.70;;;;;;4841692;29;19931;-92
2022/03/15 14:37:41;;;;;;;;;;;17.60;93.00;;;;;;4864726;29;19934;-94
2022/03/15 14:40:12;;;;;;;;;;;17.80;93.80;;;;;;4875636;29;19929;-91
2022/03/15 14:42:43;;;;;;;;;;;17.80;93.50;;;;;;4859878;29;19939;-92
2022/03/15 14:45:14;;;;;;;;;;;17.80;93.60;;;;;;4896418;29;20261;-92
2022/03/15 14:47:43;;;;;;;;;;;17.90;93.40;;;;;;4874115;29;19930;-91
2022/03/15 14:50:17;;;;;;;;;;;18.00;94.90;;;;;;4881106;29;19927;-91